sensor_id;sensor_type;location;lat;lon;timestamp;P1;durP1;ratioP1;P2;durP2;ratioP2
15871;SDS011;8035;51.962;7.162;2023-05-31T00:02:01;8.47;;;6.63;;
15871;SDS011;8035;51.962;7.162;2023-05-31T00:04:27;8.03;;;7.23;;
15871;SDS011;8035;51.962;7.162;2023-05-31T00:06:52;6.67;;;5.97;;
15871;SDS011;8035;51.962;7.162;2023-05-31T00:09:18;7.40;;;6.60;;
15871;SDS011;8035;51.962;7.162;2023-05-31T00:11:43;7.57;;;6.77;;
15871;SDS011;8035;51.962;7.162;2023-05-31T00:14:09;9.17;;;6.83;;
15871;SDS011;8035;51.962;7.162;2023-05-31T00:16:35;8.30;;;7.00;;
15871;SDS011;8035;51.962;7.162;2023-05-31T00:19:00;11.87;;;7.10;;
15871;SDS011;8035;51.962;7.162;2023-05-31T00:21:26;10.33;;;7.60;;
15871;SDS011;8035;51.962;7.162;2023-05-31T00:23:52;7.93;;;6.87;;
15871;SDS011;8035;51.962;7.162;2023-05-31T00:26:17;8.40;;;7.50;;
15871;SDS011;8035;51.962;7.162;2023-05-31T00:28:43;8.70;;;7.37;;
15871;SDS011;8035;51.962;7.162;2023-05-31T00:31:08;9.43;;;7.90;;
15871;SDS011;8035;51.962;7.162;2023-05-31T00:33:34;10.10;;;6.93;;
15871;SDS011;8035;51.962;7.162;2023-05-31T00:36:00;8.63;;;7.17;;
15871;SDS011;8035;51.962;7.162;2023-05-31T00:38:25;7.77;;;6.87;;
15871;SDS011;8035;51.962;7.162;2023-05-31T00:40:52;8.20;;;7.40;;
15871;SDS011;8035;51.962;7.162;2023-05-31T00:43:18;9.37;;;7.63;;
15871;SDS011;8035;51.962;7.162;2023-05-31T00:45:43;12.90;;;7.80;;
15871;SDS011;8035;51.962;7.162;2023-05-31T00:48:09;9.30;;;7.90;;
15871;SDS011;8035;51.962;7.162;2023-05-31T00:50:35;9.23;;;8.17;;
15871;SDS011;8035;51.962;7.162;2023-05-31T00:53:00;12.03;;;8.03;;
15871;SDS011;8035;51.962;7.162;2023-05-31T00:55:28;9.27;;;7.43;;
15871;SDS011;8035;51.962;7.162;2023-05-31T00:57:55;12.90;;;8.03;;
15871;SDS011;8035;51.962;7.162;2023-05-31T01:00:22;11.40;;;8.87;;
15871;SDS011;8035;51.962;7.162;2023-05-31T01:02:47;8.77;;;7.73;;
15871;SDS011;8035;51.962;7.162;2023-05-31T01:05:15;9.47;;;7.70;;
15871;SDS011;8035;51.962;7.162;2023-05-31T01:07:41;10.83;;;8.13;;
15871;SDS011;8035;51.962;7.162;2023-05-31T01:10:07;8.90;;;7.83;;
15871;SDS011;8035;51.962;7.162;2023-05-31T01:15:31;12.50;;;8.53;;
15871;SDS011;8035;51.962;7.162;2023-05-31T01:20:34;10.30;;;8.63;;
15871;SDS011;8035;51.962;7.162;2023-05-31T01:28:22;9.33;;;8.03;;
15871;SDS011;8035;51.962;7.162;2023-05-31T01:30:56;13.53;;;9.03;;
15871;SDS011;8035;51.962;7.162;2023-05-31T01:33:26;11.70;;;9.37;;
15871;SDS011;8035;51.962;7.162;2023-05-31T01:35:52;11.13;;;8.57;;
15871;SDS011;8035;51.962;7.162;2023-05-31T01:38:18;12.30;;;9.20;;
15871;SDS011;8035;51.962;7.162;2023-05-31T01:40:43;14.07;;;9.67;;
15871;SDS011;8035;51.962;7.162;2023-05-31T01:43:09;12.57;;;9.27;;
15871;SDS011;8035;51.962;7.162;2023-05-31T01:45:36;11.23;;;8.43;;
15871;SDS011;8035;51.962;7.162;2023-05-31T01:48:04;13.00;;;8.63;;
15871;SDS011;8035;51.962;7.162;2023-05-31T01:50:34;11.73;;;9.67;;
15871;SDS011;8035;51.962;7.162;2023-05-31T01:53:01;13.33;;;9.73;;
15871;SDS011;8035;51.962;7.162;2023-05-31T01:55:27;11.17;;;8.87;;
15871;SDS011;8035;51.962;7.162;2023-05-31T01:57:53;12.23;;;9.33;;
15871;SDS011;8035;51.962;7.162;2023-05-31T02:00:21;13.80;;;9.17;;
15871;SDS011;8035;51.962;7.162;2023-05-31T02:02:48;13.23;;;9.87;;
15871;SDS011;8035;51.962;7.162;2023-05-31T02:05:15;13.07;;;9.43;;
15871;SDS011;8035;51.962;7.162;2023-05-31T02:07:42;12.83;;;9.30;;
15871;SDS011;8035;51.962;7.162;2023-05-31T02:10:09;12.37;;;9.97;;
15871;SDS011;8035;51.962;7.162;2023-05-31T02:12:35;12.23;;;9.33;;
15871;SDS011;8035;51.962;7.162;2023-05-31T02:15:01;13.53;;;9.70;;
15871;SDS011;8035;51.962;7.162;2023-05-31T02:17:28;14.73;;;9.43;;
15871;SDS011;8035;51.962;7.162;2023-05-31T02:19:57;11.60;;;9.60;;
15871;SDS011;8035;51.962;7.162;2023-05-31T02:22:23;14.17;;;9.60;;
15871;SDS011;8035;51.962;7.162;2023-05-31T02:24:49;12.40;;;9.33;;
15871;SDS011;8035;51.962;7.162;2023-05-31T02:27:15;13.07;;;9.23;;
15871;SDS011;8035;51.962;7.162;2023-05-31T02:29:41;14.03;;;9.23;;
15871;SDS011;8035;51.962;7.162;2023-05-31T02:32:10;12.23;;;9.87;;
15871;SDS011;8035;51.962;7.162;2023-05-31T02:34:35;14.33;;;10.30;;
15871;SDS011;8035;51.962;7.162;2023-05-31T02:37:01;14.47;;;10.00;;
15871;SDS011;8035;51.962;7.162;2023-05-31T02:39:27;13.10;;;9.47;;
15871;SDS011;8035;51.962;7.162;2023-05-31T02:41:53;13.57;;;10.30;;
15871;SDS011;8035;51.962;7.162;2023-05-31T02:44:20;13.03;;;10.20;;
15871;SDS011;8035;51.962;7.162;2023-05-31T02:46:46;12.07;;;9.53;;
15871;SDS011;8035;51.962;7.162;2023-05-31T02:49:11;14.63;;;9.37;;
15871;SDS011;8035;51.962;7.162;2023-05-31T02:51:37;13.07;;;10.30;;
15871;SDS011;8035;51.962;7.162;2023-05-31T02:54:03;12.70;;;10.07;;
15871;SDS011;8035;51.962;7.162;2023-05-31T02:56:28;13.73;;;10.97;;
15871;SDS011;8035;51.962;7.162;2023-05-31T02:58:54;14.83;;;9.80;;
15871;SDS011;8035;51.962;7.162;2023-05-31T03:01:21;15.83;;;9.67;;
15871;SDS011;8035;51.962;7.162;2023-05-31T03:03:46;15.77;;;9.30;;
15871;SDS011;8035;51.962;7.162;2023-05-31T03:06:12;13.87;;;9.97;;
15871;SDS011;8035;51.962;7.162;2023-05-31T03:08:41;13.50;;;10.43;;
15871;SDS011;8035;51.962;7.162;2023-05-31T03:11:07;13.30;;;9.77;;
15871;SDS011;8035;51.962;7.162;2023-05-31T03:13:33;15.20;;;10.63;;
15871;SDS011;8035;51.962;7.162;2023-05-31T03:15:59;13.60;;;9.97;;
15871;SDS011;8035;51.962;7.162;2023-05-31T03:18:25;12.53;;;10.00;;
15871;SDS011;8035;51.962;7.162;2023-05-31T03:20:50;12.87;;;9.50;;
15871;SDS011;8035;51.962;7.162;2023-05-31T03:23:16;16.37;;;10.40;;
15871;SDS011;8035;51.962;7.162;2023-05-31T03:25:42;14.47;;;10.10;;
15871;SDS011;8035;51.962;7.162;2023-05-31T03:28:07;13.00;;;10.13;;
15871;SDS011;8035;51.962;7.162;2023-05-31T03:30:33;13.30;;;10.40;;
15871;SDS011;8035;51.962;7.162;2023-05-31T03:32:58;14.53;;;10.03;;
15871;SDS011;8035;51.962;7.162;2023-05-31T03:35:24;14.33;;;10.57;;
15871;SDS011;8035;51.962;7.162;2023-05-31T03:37:49;13.77;;;9.77;;
15871;SDS011;8035;51.962;7.162;2023-05-31T03:40:15;14.73;;;9.40;;
15871;SDS011;8035;51.962;7.162;2023-05-31T03:42:41;16.47;;;9.63;;
15871;SDS011;8035;51.962;7.162;2023-05-31T03:45:07;14.40;;;10.37;;
15871;SDS011;8035;51.962;7.162;2023-05-31T03:47:33;15.67;;;10.40;;
15871;SDS011;8035;51.962;7.162;2023-05-31T03:49:58;14.37;;;11.03;;
15871;SDS011;8035;51.962;7.162;2023-05-31T03:52:24;17.03;;;9.70;;
15871;SDS011;8035;51.962;7.162;2023-05-31T03:54:49;16.53;;;11.30;;
15871;SDS011;8035;51.962;7.162;2023-05-31T03:57:15;16.90;;;10.43;;
15871;SDS011;8035;51.962;7.162;2023-05-31T03:59:41;13.13;;;10.37;;
15871;SDS011;8035;51.962;7.162;2023-05-31T04:02:06;15.00;;;11.03;;
15871;SDS011;8035;51.962;7.162;2023-05-31T04:04:32;15.40;;;10.67;;
15871;SDS011;8035;51.962;7.162;2023-05-31T04:06:57;16.60;;;10.23;;
15871;SDS011;8035;51.962;7.162;2023-05-31T04:09:23;16.20;;;9.97;;
15871;SDS011;8035;51.962;7.162;2023-05-31T04:11:49;15.70;;;10.83;;
15871;SDS011;8035;51.962;7.162;2023-05-31T04:14:14;15.90;;;11.03;;
15871;SDS011;8035;51.962;7.162;2023-05-31T04:16:40;15.90;;;11.00;;
15871;SDS011;8035;51.962;7.162;2023-05-31T04:19:06;15.77;;;10.97;;
15871;SDS011;8035;51.962;7.162;2023-05-31T04:21:32;17.10;;;10.60;;
15871;SDS011;8035;51.962;7.162;2023-05-31T04:23:58;19.13;;;11.23;;
15871;SDS011;8035;51.962;7.162;2023-05-31T04:26:24;16.80;;;11.97;;
15871;SDS011;8035;51.962;7.162;2023-05-31T04:28:50;15.90;;;11.07;;
15871;SDS011;8035;51.962;7.162;2023-05-31T04:31:20;15.93;;;11.60;;
15871;SDS011;8035;51.962;7.162;2023-05-31T04:33:49;18.07;;;11.73;;
15871;SDS011;8035;51.962;7.162;2023-05-31T04:36:16;14.33;;;11.47;;
15871;SDS011;8035;51.962;7.162;2023-05-31T04:38:41;15.70;;;11.07;;
15871;SDS011;8035;51.962;7.162;2023-05-31T04:41:07;16.67;;;11.93;;
15871;SDS011;8035;51.962;7.162;2023-05-31T04:43:33;16.73;;;11.17;;
15871;SDS011;8035;51.962;7.162;2023-05-31T04:45:59;18.47;;;11.57;;
15871;SDS011;8035;51.962;7.162;2023-05-31T04:48:25;19.43;;;11.97;;
15871;SDS011;8035;51.962;7.162;2023-05-31T04:50:52;18.90;;;11.67;;
15871;SDS011;8035;51.962;7.162;2023-05-31T04:53:20;19.43;;;13.10;;
15871;SDS011;8035;51.962;7.162;2023-05-31T04:55:45;17.87;;;12.83;;
15871;SDS011;8035;51.962;7.162;2023-05-31T04:58:11;20.10;;;11.23;;
15871;SDS011;8035;51.962;7.162;2023-05-31T05:00:36;18.57;;;12.17;;
15871;SDS011;8035;51.962;7.162;2023-05-31T05:03:02;17.30;;;12.07;;
15871;SDS011;8035;51.962;7.162;2023-05-31T05:05:28;17.63;;;11.90;;
15871;SDS011;8035;51.962;7.162;2023-05-31T05:07:53;18.37;;;12.40;;
15871;SDS011;8035;51.962;7.162;2023-05-31T05:10:19;19.27;;;11.57;;
15871;SDS011;8035;51.962;7.162;2023-05-31T05:12:45;17.57;;;11.43;;
15871;SDS011;8035;51.962;7.162;2023-05-31T05:15:10;16.73;;;11.73;;
15871;SDS011;8035;51.962;7.162;2023-05-31T05:17:36;19.43;;;11.60;;
15871;SDS011;8035;51.962;7.162;2023-05-31T05:20:02;19.57;;;11.60;;
15871;SDS011;8035;51.962;7.162;2023-05-31T05:22:33;14.90;;;10.87;;
15871;SDS011;8035;51.962;7.162;2023-05-31T05:24:58;15.67;;;11.37;;
15871;SDS011;8035;51.962;7.162;2023-05-31T05:27:25;21.93;;;11.40;;
15871;SDS011;8035;51.962;7.162;2023-05-31T05:29:50;16.77;;;10.60;;
15871;SDS011;8035;51.962;7.162;2023-05-31T05:32:16;18.63;;;11.17;;
15871;SDS011;8035;51.962;7.162;2023-05-31T05:34:41;17.40;;;11.03;;
15871;SDS011;8035;51.962;7.162;2023-05-31T05:37:07;18.00;;;11.23;;
15871;SDS011;8035;51.962;7.162;2023-05-31T05:39:33;16.90;;;11.23;;
15871;SDS011;8035;51.962;7.162;2023-05-31T05:41:58;20.57;;;12.77;;
15871;SDS011;8035;51.962;7.162;2023-05-31T05:44:24;16.57;;;11.27;;
15871;SDS011;8035;51.962;7.162;2023-05-31T05:46:49;21.70;;;12.00;;
15871;SDS011;8035;51.962;7.162;2023-05-31T05:49:15;19.47;;;11.23;;
15871;SDS011;8035;51.962;7.162;2023-05-31T05:51:41;17.73;;;10.53;;
15871;SDS011;8035;51.962;7.162;2023-05-31T05:54:07;17.27;;;10.50;;
15871;SDS011;8035;51.962;7.162;2023-05-31T05:56:32;17.77;;;11.30;;
15871;SDS011;8035;51.962;7.162;2023-05-31T05:58:58;17.47;;;10.27;;
15871;SDS011;8035;51.962;7.162;2023-05-31T06:01:24;15.67;;;10.50;;
15871;SDS011;8035;51.962;7.162;2023-05-31T06:03:52;18.70;;;11.03;;
15871;SDS011;8035;51.962;7.162;2023-05-31T06:06:17;14.40;;;10.07;;
15871;SDS011;8035;51.962;7.162;2023-05-31T06:08:43;15.27;;;10.13;;
15871;SDS011;8035;51.962;7.162;2023-05-31T06:11:10;19.97;;;10.60;;
15871;SDS011;8035;51.962;7.162;2023-05-31T06:13:36;17.23;;;9.90;;
15871;SDS011;8035;51.962;7.162;2023-05-31T06:16:05;15.90;;;10.10;;
15871;SDS011;8035;51.962;7.162;2023-05-31T06:18:31;14.47;;;9.50;;
15871;SDS011;8035;51.962;7.162;2023-05-31T06:20:57;14.43;;;9.43;;
15871;SDS011;8035;51.962;7.162;2023-05-31T06:23:22;15.43;;;9.63;;
15871;SDS011;8035;51.962;7.162;2023-05-31T06:25:48;15.87;;;10.00;;
15871;SDS011;8035;51.962;7.162;2023-05-31T06:28:14;13.00;;;9.43;;
15871;SDS011;8035;51.962;7.162;2023-05-31T06:30:39;17.10;;;9.57;;
15871;SDS011;8035;51.962;7.162;2023-05-31T06:33:07;13.43;;;9.70;;
15871;SDS011;8035;51.962;7.162;2023-05-31T06:35:33;15.53;;;9.87;;
15871;SDS011;8035;51.962;7.162;2023-05-31T06:37:58;18.47;;;9.63;;
15871;SDS011;8035;51.962;7.162;2023-05-31T06:40:24;16.63;;;9.80;;
15871;SDS011;8035;51.962;7.162;2023-05-31T06:42:49;12.57;;;9.03;;
15871;SDS011;8035;51.962;7.162;2023-05-31T06:45:15;15.63;;;9.00;;
15871;SDS011;8035;51.962;7.162;2023-05-31T06:47:40;15.20;;;9.57;;
15871;SDS011;8035;51.962;7.162;2023-05-31T06:50:06;17.13;;;9.33;;
15871;SDS011;8035;51.962;7.162;2023-05-31T06:52:32;15.47;;;9.57;;
15871;SDS011;8035;51.962;7.162;2023-05-31T06:54:57;15.00;;;8.97;;
15871;SDS011;8035;51.962;7.162;2023-05-31T06:57:23;12.83;;;9.30;;
15871;SDS011;8035;51.962;7.162;2023-05-31T06:59:48;14.90;;;9.27;;
15871;SDS011;8035;51.962;7.162;2023-05-31T07:02:14;11.87;;;8.77;;
15871;SDS011;8035;51.962;7.162;2023-05-31T07:04:40;10.97;;;8.40;;
15871;SDS011;8035;51.962;7.162;2023-05-31T07:07:06;12.13;;;8.80;;
15871;SDS011;8035;51.962;7.162;2023-05-31T07:09:34;12.83;;;8.53;;
15871;SDS011;8035;51.962;7.162;2023-05-31T07:12:00;12.40;;;9.03;;
15871;SDS011;8035;51.962;7.162;2023-05-31T07:14:28;14.97;;;8.90;;
15871;SDS011;8035;51.962;7.162;2023-05-31T07:16:53;17.67;;;8.43;;
15871;SDS011;8035;51.962;7.162;2023-05-31T07:19:19;12.17;;;8.50;;
15871;SDS011;8035;51.962;7.162;2023-05-31T07:21:44;12.33;;;8.57;;
15871;SDS011;8035;51.962;7.162;2023-05-31T07:24:10;13.37;;;8.67;;
15871;SDS011;8035;51.962;7.162;2023-05-31T07:26:36;12.73;;;8.20;;
15871;SDS011;8035;51.962;7.162;2023-05-31T07:29:01;14.83;;;9.00;;
15871;SDS011;8035;51.962;7.162;2023-05-31T07:31:27;11.00;;;8.03;;
15871;SDS011;8035;51.962;7.162;2023-05-31T07:33:53;12.73;;;8.13;;
15871;SDS011;8035;51.962;7.162;2023-05-31T07:36:20;11.77;;;7.40;;
15871;SDS011;8035;51.962;7.162;2023-05-31T07:38:49;13.60;;;8.37;;
15871;SDS011;8035;51.962;7.162;2023-05-31T07:41:15;15.80;;;8.37;;
15871;SDS011;8035;51.962;7.162;2023-05-31T07:43:40;12.90;;;8.10;;
15871;SDS011;8035;51.962;7.162;2023-05-31T07:46:08;11.93;;;8.00;;
15871;SDS011;8035;51.962;7.162;2023-05-31T07:48:34;10.60;;;6.93;;
15871;SDS011;8035;51.962;7.162;2023-05-31T07:50:59;10.03;;;6.63;;
15871;SDS011;8035;51.962;7.162;2023-05-31T07:53:25;10.13;;;7.23;;
15871;SDS011;8035;51.962;7.162;2023-05-31T07:55:51;11.07;;;8.20;;
15871;SDS011;8035;51.962;7.162;2023-05-31T07:58:16;10.10;;;7.10;;
15871;SDS011;8035;51.962;7.162;2023-05-31T08:00:42;10.13;;;7.37;;
15871;SDS011;8035;51.962;7.162;2023-05-31T08:03:07;11.37;;;7.30;;
15871;SDS011;8035;51.962;7.162;2023-05-31T08:05:33;14.60;;;7.27;;
15871;SDS011;8035;51.962;7.162;2023-05-31T08:07:59;12.90;;;7.33;;
15871;SDS011;8035;51.962;7.162;2023-05-31T08:10:25;11.77;;;7.20;;
15871;SDS011;8035;51.962;7.162;2023-05-31T08:12:50;8.73;;;6.80;;
15871;SDS011;8035;51.962;7.162;2023-05-31T08:15:16;9.37;;;6.47;;
15871;SDS011;8035;51.962;7.162;2023-05-31T08:17:42;8.73;;;7.10;;
15871;SDS011;8035;51.962;7.162;2023-05-31T08:20:08;10.00;;;6.43;;
15871;SDS011;8035;51.962;7.162;2023-05-31T08:22:41;10.00;;;6.47;;
15871;SDS011;8035;51.962;7.162;2023-05-31T08:25:07;13.57;;;7.13;;
15871;SDS011;8035;51.962;7.162;2023-05-31T08:27:33;12.43;;;8.23;;
15871;SDS011;8035;51.962;7.162;2023-05-31T08:29:59;12.50;;;7.07;;
15871;SDS011;8035;51.962;7.162;2023-05-31T08:32:24;12.23;;;7.20;;
15871;SDS011;8035;51.962;7.162;2023-05-31T08:34:50;9.33;;;6.40;;
15871;SDS011;8035;51.962;7.162;2023-05-31T08:37:16;15.23;;;7.27;;
15871;SDS011;8035;51.962;7.162;2023-05-31T08:39:41;8.80;;;6.93;;
15871;SDS011;8035;51.962;7.162;2023-05-31T08:42:09;10.93;;;6.87;;
15871;SDS011;8035;51.962;7.162;2023-05-31T08:44:39;9.13;;;6.60;;
15871;SDS011;8035;51.962;7.162;2023-05-31T08:47:14;11.43;;;6.68;;
15871;SDS011;8035;51.962;7.162;2023-05-31T08:49:47;13.13;;;7.70;;
15871;SDS011;8035;51.962;7.162;2023-05-31T08:52:14;10.73;;;6.57;;
15871;SDS011;8035;51.962;7.162;2023-05-31T08:54:41;10.10;;;6.33;;
15871;SDS011;8035;51.962;7.162;2023-05-31T08:57:09;10.35;;;6.68;;
15871;SDS011;8035;51.962;7.162;2023-05-31T08:59:36;9.85;;;7.10;;
15871;SDS011;8035;51.962;7.162;2023-05-31T09:02:03;10.95;;;6.40;;
15871;SDS011;8035;51.962;7.162;2023-05-31T09:04:29;8.30;;;6.05;;
15871;SDS011;8035;51.962;7.162;2023-05-31T09:06:54;7.63;;;5.32;;
15871;SDS011;8035;51.962;7.162;2023-05-31T09:09:20;8.07;;;5.18;;
15871;SDS011;8035;51.962;7.162;2023-05-31T09:11:46;8.95;;;5.88;;
15871;SDS011;8035;51.962;7.162;2023-05-31T09:14:11;11.82;;;5.80;;
15871;SDS011;8035;51.962;7.162;2023-05-31T09:16:37;10.60;;;5.75;;
15871;SDS011;8035;51.962;7.162;2023-05-31T09:19:03;8.27;;;5.68;;
15871;SDS011;8035;51.962;7.162;2023-05-31T09:21:33;8.93;;;5.43;;
15871;SDS011;8035;51.962;7.162;2023-05-31T09:24:03;9.40;;;6.00;;
15871;SDS011;8035;51.962;7.162;2023-05-31T09:26:29;12.10;;;6.25;;
15871;SDS011;8035;51.962;7.162;2023-05-31T09:28:57;9.38;;;5.90;;
15871;SDS011;8035;51.962;7.162;2023-05-31T09:31:24;12.15;;;6.43;;
15871;SDS011;8035;51.962;7.162;2023-05-31T09:33:50;10.43;;;5.90;;
15871;SDS011;8035;51.962;7.162;2023-05-31T09:36:23;11.55;;;6.10;;
15871;SDS011;8035;51.962;7.162;2023-05-31T09:38:48;8.70;;;5.28;;
15871;SDS011;8035;51.962;7.162;2023-05-31T09:41:17;6.95;;;4.93;;
15871;SDS011;8035;51.962;7.162;2023-05-31T09:43:44;9.38;;;4.70;;
15871;SDS011;8035;51.962;7.162;2023-05-31T09:46:15;7.80;;;4.20;;
15871;SDS011;8035;51.962;7.162;2023-05-31T09:48:44;8.00;;;4.47;;
15871;SDS011;8035;51.962;7.162;2023-05-31T09:51:11;5.93;;;4.65;;
15871;SDS011;8035;51.962;7.162;2023-05-31T09:53:44;6.47;;;3.58;;
15871;SDS011;8035;51.962;7.162;2023-05-31T09:56:11;7.90;;;4.38;;
15871;SDS011;8035;51.962;7.162;2023-05-31T09:58:43;8.77;;;4.15;;
15871;SDS011;8035;51.962;7.162;2023-05-31T10:01:09;5.72;;;3.92;;
15871;SDS011;8035;51.962;7.162;2023-05-31T10:03:35;10.10;;;3.70;;
15871;SDS011;8035;51.962;7.162;2023-05-31T10:06:02;6.03;;;3.72;;
15871;SDS011;8035;51.962;7.162;2023-05-31T10:08:28;5.93;;;3.58;;
15871;SDS011;8035;51.962;7.162;2023-05-31T10:10:56;6.38;;;3.53;;
15871;SDS011;8035;51.962;7.162;2023-05-31T10:13:23;7.28;;;4.05;;
15871;SDS011;8035;51.962;7.162;2023-05-31T10:15:53;5.72;;;3.20;;
15871;SDS011;8035;51.962;7.162;2023-05-31T10:18:21;5.72;;;3.65;;
15871;SDS011;8035;51.962;7.162;2023-05-31T10:20:52;6.00;;;3.13;;
15871;SDS011;8035;51.962;7.162;2023-05-31T10:23:34;8.52;;;4.03;;
15871;SDS011;8035;51.962;7.162;2023-05-31T10:31:10;10.82;;;3.40;;
15871;SDS011;8035;51.962;7.162;2023-05-31T10:33:36;6.57;;;3.28;;
15871;SDS011;8035;51.962;7.162;2023-05-31T10:36:04;7.15;;;3.63;;
15871;SDS011;8035;51.962;7.162;2023-05-31T10:38:32;6.35;;;3.45;;
15871;SDS011;8035;51.962;7.162;2023-05-31T10:41:09;7.10;;;3.67;;
15871;SDS011;8035;51.962;7.162;2023-05-31T10:43:39;7.75;;;3.55;;
15871;SDS011;8035;51.962;7.162;2023-05-31T10:46:15;7.75;;;3.10;;
15871;SDS011;8035;51.962;7.162;2023-05-31T10:48:54;7.35;;;3.05;;
15871;SDS011;8035;51.962;7.162;2023-05-31T10:51:38;6.53;;;3.58;;
15871;SDS011;8035;51.962;7.162;2023-05-31T10:54:04;5.05;;;2.97;;
15871;SDS011;8035;51.962;7.162;2023-05-31T10:56:30;5.10;;;2.80;;
15871;SDS011;8035;51.962;7.162;2023-05-31T10:58:56;7.10;;;3.53;;
15871;SDS011;8035;51.962;7.162;2023-05-31T11:01:22;6.07;;;3.28;;
15871;SDS011;8035;51.962;7.162;2023-05-31T11:03:53;5.35;;;3.58;;
15871;SDS011;8035;51.962;7.162;2023-05-31T11:14:03;5.15;;;3.00;;
15871;SDS011;8035;51.962;7.162;2023-05-31T11:19:14;5.30;;;3.00;;
15871;SDS011;8035;51.962;7.162;2023-05-31T11:26:52;5.68;;;2.92;;
15871;SDS011;8035;51.962;7.162;2023-05-31T11:29:18;4.85;;;2.90;;
15871;SDS011;8035;51.962;7.162;2023-05-31T11:34:22;5.05;;;2.92;;
15871;SDS011;8035;51.962;7.162;2023-05-31T11:36:50;6.05;;;3.22;;
15871;SDS011;8035;51.962;7.162;2023-05-31T11:39:16;7.32;;;3.38;;
15871;SDS011;8035;51.962;7.162;2023-05-31T11:41:43;7.10;;;3.60;;
15871;SDS011;8035;51.962;7.162;2023-05-31T11:44:13;5.88;;;3.05;;
15871;SDS011;8035;51.962;7.162;2023-05-31T11:46:42;6.65;;;2.75;;
15871;SDS011;8035;51.962;7.162;2023-05-31T11:49:11;6.03;;;3.40;;
15871;SDS011;8035;51.962;7.162;2023-05-31T11:51:37;3.97;;;3.05;;
15871;SDS011;8035;51.962;7.162;2023-05-31T11:54:07;5.85;;;3.30;;
15871;SDS011;8035;51.962;7.162;2023-05-31T11:56:33;9.32;;;3.42;;
15871;SDS011;8035;51.962;7.162;2023-05-31T11:59:01;4.95;;;3.30;;
15871;SDS011;8035;51.962;7.162;2023-05-31T12:01:27;5.53;;;3.45;;
15871;SDS011;8035;51.962;7.162;2023-05-31T12:04:00;6.75;;;3.38;;
15871;SDS011;8035;51.962;7.162;2023-05-31T12:06:25;6.75;;;2.83;;
15871;SDS011;8035;51.962;7.162;2023-05-31T12:08:54;6.22;;;3.53;;
15871;SDS011;8035;51.962;7.162;2023-05-31T12:11:20;6.75;;;3.25;;
15871;SDS011;8035;51.962;7.162;2023-05-31T12:13:53;5.07;;;3.13;;
15871;SDS011;8035;51.962;7.162;2023-05-31T12:16:19;6.40;;;3.42;;
15871;SDS011;8035;51.962;7.162;2023-05-31T12:18:47;4.85;;;3.10;;
15871;SDS011;8035;51.962;7.162;2023-05-31T12:21:13;5.00;;;3.58;;
15871;SDS011;8035;51.962;7.162;2023-05-31T12:26:18;6.38;;;3.22;;
15871;SDS011;8035;51.962;7.162;2023-05-31T12:28:46;6.90;;;3.65;;
15871;SDS011;8035;51.962;7.162;2023-05-31T12:31:18;5.90;;;3.15;;
15871;SDS011;8035;51.962;7.162;2023-05-31T12:33:57;5.40;;;3.40;;
15871;SDS011;8035;51.962;7.162;2023-05-31T12:36:25;7.90;;;3.40;;
15871;SDS011;8035;51.962;7.162;2023-05-31T12:38:57;4.90;;;3.17;;
15871;SDS011;8035;51.962;7.162;2023-05-31T12:41:23;6.72;;;3.20;;
15871;SDS011;8035;51.962;7.162;2023-05-31T12:43:49;5.88;;;3.22;;
15871;SDS011;8035;51.962;7.162;2023-05-31T12:46:18;4.90;;;3.17;;
15871;SDS011;8035;51.962;7.162;2023-05-31T12:48:47;5.10;;;2.88;;
15871;SDS011;8035;51.962;7.162;2023-05-31T12:51:13;6.50;;;2.95;;
15871;SDS011;8035;51.962;7.162;2023-05-31T12:53:45;6.03;;;2.90;;
15871;SDS011;8035;51.962;7.162;2023-05-31T12:56:11;6.10;;;3.22;;
15871;SDS011;8035;51.962;7.162;2023-05-31T12:58:36;5.13;;;2.72;;
15871;SDS011;8035;51.962;7.162;2023-05-31T13:01:02;5.47;;;2.80;;
15871;SDS011;8035;51.962;7.162;2023-05-31T13:03:27;5.07;;;2.97;;
15871;SDS011;8035;51.962;7.162;2023-05-31T13:05:53;6.75;;;2.95;;
15871;SDS011;8035;51.962;7.162;2023-05-31T13:08:18;7.40;;;2.80;;
15871;SDS011;8035;51.962;7.162;2023-05-31T13:10:44;4.30;;;2.53;;
15871;SDS011;8035;51.962;7.162;2023-05-31T13:13:10;5.13;;;2.95;;
15871;SDS011;8035;51.962;7.162;2023-05-31T13:15:35;4.72;;;2.97;;
15871;SDS011;8035;51.962;7.162;2023-05-31T13:18:02;6.95;;;2.88;;
15871;SDS011;8035;51.962;7.162;2023-05-31T13:20:28;4.95;;;2.60;;
15871;SDS011;8035;51.962;7.162;2023-05-31T13:22:54;3.75;;;2.42;;
15871;SDS011;8035;51.962;7.162;2023-05-31T13:25:19;5.68;;;3.05;;
15871;SDS011;8035;51.962;7.162;2023-05-31T13:27:45;6.05;;;2.88;;
15871;SDS011;8035;51.962;7.162;2023-05-31T13:30:11;5.63;;;2.88;;
15871;SDS011;8035;51.962;7.162;2023-05-31T13:32:37;4.43;;;2.85;;
15871;SDS011;8035;51.962;7.162;2023-05-31T13:35:03;4.95;;;2.83;;
15871;SDS011;8035;51.962;7.162;2023-05-31T13:37:29;5.38;;;2.75;;
15871;SDS011;8035;51.962;7.162;2023-05-31T13:39:55;4.78;;;2.67;;
15871;SDS011;8035;51.962;7.162;2023-05-31T13:42:20;6.97;;;3.28;;
15871;SDS011;8035;51.962;7.162;2023-05-31T13:44:46;5.43;;;3.08;;
15871;SDS011;8035;51.962;7.162;2023-05-31T13:47:11;8.43;;;2.88;;
15871;SDS011;8035;51.962;7.162;2023-05-31T13:49:37;3.72;;;2.80;;
15871;SDS011;8035;51.962;7.162;2023-05-31T13:52:03;6.03;;;3.28;;
15871;SDS011;8035;51.962;7.162;2023-05-31T13:54:30;4.82;;;2.60;;
15871;SDS011;8035;51.962;7.162;2023-05-31T13:56:56;9.60;;;2.95;;
15871;SDS011;8035;51.962;7.162;2023-05-31T13:59:23;7.63;;;2.65;;
15871;SDS011;8035;51.962;7.162;2023-05-31T14:01:49;6.85;;;2.90;;
15871;SDS011;8035;51.962;7.162;2023-05-31T14:04:14;6.35;;;2.60;;
15871;SDS011;8035;51.962;7.162;2023-05-31T14:06:41;5.93;;;2.67;;
15871;SDS011;8035;51.962;7.162;2023-05-31T14:09:07;5.13;;;2.58;;
15871;SDS011;8035;51.962;7.162;2023-05-31T14:11:32;4.30;;;2.40;;
15871;SDS011;8035;51.962;7.162;2023-05-31T14:13:58;4.47;;;2.65;;
15871;SDS011;8035;51.962;7.162;2023-05-31T14:16:23;4.50;;;2.47;;
15871;SDS011;8035;51.962;7.162;2023-05-31T14:18:49;5.20;;;2.47;;
15871;SDS011;8035;51.962;7.162;2023-05-31T14:21:15;4.85;;;3.08;;
15871;SDS011;8035;51.962;7.162;2023-05-31T14:23:41;5.65;;;2.63;;
15871;SDS011;8035;51.962;7.162;2023-05-31T14:26:07;5.25;;;2.58;;
15871;SDS011;8035;51.962;7.162;2023-05-31T14:28:32;4.80;;;2.78;;
15871;SDS011;8035;51.962;7.162;2023-05-31T14:30:58;4.47;;;3.00;;
15871;SDS011;8035;51.962;7.162;2023-05-31T14:33:25;6.15;;;2.35;;
15871;SDS011;8035;51.962;7.162;2023-05-31T14:35:50;3.90;;;2.60;;
15871;SDS011;8035;51.962;7.162;2023-05-31T14:38:16;3.72;;;2.47;;
15871;SDS011;8035;51.962;7.162;2023-05-31T14:40:43;8.07;;;2.83;;
15871;SDS011;8035;51.962;7.162;2023-05-31T14:43:09;4.78;;;3.00;;
15871;SDS011;8035;51.962;7.162;2023-05-31T14:45:35;4.88;;;2.65;;
15871;SDS011;8035;51.962;7.162;2023-05-31T14:48:01;3.88;;;2.40;;
15871;SDS011;8035;51.962;7.162;2023-05-31T14:50:26;3.53;;;2.42;;
15871;SDS011;8035;51.962;7.162;2023-05-31T14:52:52;3.55;;;2.03;;
15871;SDS011;8035;51.962;7.162;2023-05-31T14:55:18;5.63;;;2.33;;
15871;SDS011;8035;51.962;7.162;2023-05-31T14:57:43;6.20;;;2.72;;
15871;SDS011;8035;51.962;7.162;2023-05-31T15:00:09;4.18;;;2.28;;
15871;SDS011;8035;51.962;7.162;2023-05-31T15:02:37;5.78;;;2.80;;
15871;SDS011;8035;51.962;7.162;2023-05-31T15:05:02;5.25;;;2.67;;
15871;SDS011;8035;51.962;7.162;2023-05-31T15:07:28;4.38;;;2.50;;
15871;SDS011;8035;51.962;7.162;2023-05-31T15:09:54;6.38;;;2.42;;
15871;SDS011;8035;51.962;7.162;2023-05-31T15:12:19;5.57;;;2.42;;
15871;SDS011;8035;51.962;7.162;2023-05-31T15:14:45;5.65;;;2.45;;
15871;SDS011;8035;51.962;7.162;2023-05-31T15:17:10;6.00;;;2.50;;
15871;SDS011;8035;51.962;7.162;2023-05-31T15:19:36;5.13;;;2.80;;
15871;SDS011;8035;51.962;7.162;2023-05-31T15:22:03;3.97;;;2.50;;
15871;SDS011;8035;51.962;7.162;2023-05-31T15:24:29;6.47;;;2.72;;